Time;durP1;ratioP1;P1;durP2;ratioP2;P2;SDS_P1;SDS_P2;PMS_P1;PMS_P2;Temp;Humidity;BMP_temperature;BMP_pressure;BME280_temperature;BME280_humidity;BME280_pressure;Samples;Min_cycle;Max_cycle;Signal;HPM_P1;HPM_P2
2023/10/13 00:00:42;;;;;;;3.92;3.22;;;19.30;99.90;;;;;;5017036;28;20173;-65
2023/10/13 00:03:14;;;;;;;4.82;3.72;;;19.20;99.90;;;;;;5033621;28;20476;-66
2023/10/13 00:05:41;;;;;;;4.30;3.60;;;19.20;99.90;;;;;;5053299;28;20181;-65
2023/10/13 00:08:08;;;;;;;4.20;3.38;;;19.20;99.90;;;;;;5035961;28;20202;-65
2023/10/13 00:10:36;;;;;;;4.22;3.50;;;19.20;99.90;;;;;;5039205;28;20187;-66
2023/10/13 00:15:59;;;;;;;3.83;3.30;;;19.20;99.90;;;;;;5037228;28;20302;-66
2023/10/13 00:18:42;;;;;;;4.32;3.22;;;19.20;99.90;;;;;;5046765;28;20182;-65
2023/10/13 00:21:13;;;;;;;5.72;3.63;;;19.20;99.90;;;;;;5036076;28;21614;-65
2023/10/13 00:23:53;;;;;;;3.90;3.22;;;19.20;99.90;;;;;;5035624;28;20170;-65
2023/10/13 00:26:29;;;;;;;4.30;3.33;;;19.20;99.90;;;;;;5034824;28;20201;-66
2023/10/13 00:31:42;;;;;;;4.32;3.40;;;19.20;99.90;;;;;;5017257;28;20213;-65
2023/10/13 00:39:45;;;;;;;4.05;3.10;;;19.20;99.90;;;;;;5047655;28;20217;-65
2023/10/13 00:42:30;;;;;;;4.25;3.03;;;19.20;99.90;;;;;;5039941;28;20205;-65
2023/10/13 00:44:59;;;;;;;4.53;3.15;;;19.20;99.90;;;;;;5017713;28;20233;-65
2023/10/13 00:47:37;;;;;;;5.78;3.25;;;19.20;99.90;;;;;;5035969;28;20201;-66
2023/10/13 00:50:11;;;;;;;5.63;3.20;;;19.20;99.90;;;;;;5023929;28;20167;-65
2023/10/13 00:52:41;;;;;;;5.22;3.10;;;19.20;99.90;;;;;;5035527;28;20212;-65
2023/10/13 00:55:09;;;;;;;4.40;3.15;;;19.20;99.90;;;;;;5053077;28;20201;-65
2023/10/13 00:57:36;;;;;;;5.63;3.33;;;19.20;99.90;;;;;;5023250;28;20244;-65
2023/10/13 01:00:18;;;;;;;5.25;3.55;;;19.20;99.90;;;;;;5035624;28;20192;-65
2023/10/13 01:02:45;;;;;;;4.18;3.20;;;19.20;99.90;;;;;;5035409;28;20204;-64
2023/10/13 01:05:19;;;;;;;5.25;3.20;;;19.20;99.90;;;;;;5034032;28;20178;-65
2023/10/13 01:07:54;;;;;;;4.88;3.35;;;19.20;99.90;;;;;;5029629;28;20202;-65
2023/10/13 01:10:32;;;;;;;4.10;3.45;;;19.20;99.90;;;;;;5031807;28;20184;-66
2023/10/13 01:12:59;;;;;;;3.53;3.15;;;19.20;99.90;;;;;;5035158;28;20195;-65
2023/10/13 01:15:30;;;;;;;5.32;3.35;;;19.20;99.90;;;;;;5043796;28;20185;-65
2023/10/13 01:18:13;;;;;;;5.15;3.40;;;19.20;99.90;;;;;;5034672;28;20258;-66
2023/10/13 01:20:52;;;;;;;3.60;3.28;;;19.20;99.90;;;;;;5029964;28;20220;-66
2023/10/13 01:23:28;;;;;;;4.22;3.60;;;19.20;99.90;;;;;;5035172;28;20174;-65
2023/10/13 01:25:56;;;;;;;4.50;3.45;;;19.20;99.90;;;;;;5035166;28;20316;-66
2023/10/13 01:28:24;;;;;;;6.65;3.60;;;19.20;99.90;;;;;;5034453;28;20210;-66
2023/10/13 01:30:50;;;;;;;4.72;3.58;;;19.20;99.90;;;;;;5029881;28;20220;-64
2023/10/13 01:33:17;;;;;;;4.40;3.50;;;19.20;99.90;;;;;;5038508;28;20277;-65
2023/10/13 01:35:47;;;;;;;5.43;3.35;;;19.20;99.90;;;;;;5029186;28;20321;-64
2023/10/13 01:38:14;;;;;;;3.70;3.20;;;19.20;99.90;;;;;;5032938;28;20217;-64
2023/10/13 01:40:43;;;;;;;5.85;3.22;;;19.10;99.90;;;;;;5035062;28;20186;-65
2023/10/13 01:43:14;;;;;;;3.90;2.97;;;19.20;99.90;;;;;;5035446;28;20190;-65
2023/10/13 01:45:47;;;;;;;5.35;3.63;;;19.20;99.90;;;;;;5032869;28;20201;-65
2023/10/13 01:48:18;;;;;;;5.35;3.67;;;19.10;99.90;;;;;;5031754;28;20233;-65
2023/10/13 01:50:47;;;;;;;3.72;3.42;;;19.10;99.90;;;;;;5031071;28;20226;-65
2023/10/13 01:53:17;;;;;;;4.03;3.63;;;19.10;99.90;;;;;;5031541;28;20177;-65
2023/10/13 01:55:43;;;;;;;4.07;3.53;;;19.10;99.90;;;;;;5031249;28;20298;-65
2023/10/13 01:58:15;;;;;;;5.03;3.42;;;19.10;99.90;;;;;;5014888;28;20206;-65
2023/10/13 02:00:44;;;;;;;4.35;3.58;;;19.10;99.90;;;;;;5039739;28;20337;-65
2023/10/13 02:03:21;;;;;;;4.07;3.55;;;19.10;99.90;;;;;;5034417;28;20177;-65
2023/10/13 02:05:48;;;;;;;4.80;3.65;;;19.10;99.90;;;;;;5032452;28;20178;-65
2023/10/13 02:08:23;;;;;;;4.38;3.63;;;19.10;99.90;;;;;;5034525;28;20196;-64
2023/10/13 02:10:52;;;;;;;6.97;3.40;;;19.10;99.90;;;;;;5034471;28;20243;-65
2023/10/13 02:13:22;;;;;;;5.90;3.95;;;19.10;99.90;;;;;;5031084;28;20171;-65
2023/10/13 02:15:57;;;;;;;4.22;3.53;;;19.10;99.90;;;;;;5023552;28;20190;-65
2023/10/13 02:18:33;;;;;;;5.38;3.60;;;19.10;99.90;;;;;;5028841;28;20178;-65
2023/10/13 02:21:04;;;;;;;5.65;3.50;;;19.10;99.90;;;;;;5031365;28;20174;-65
2023/10/13 02:23:30;;;;;;;4.15;3.35;;;19.10;99.90;;;;;;5034496;28;20217;-65
2023/10/13 02:26:15;;;;;;;4.50;3.53;;;19.10;99.90;;;;;;5034201;28;20182;-65
2023/10/13 02:28:44;;;;;;;4.75;3.88;;;19.10;99.90;;;;;;5046124;28;20170;-65
2023/10/13 02:31:11;;;;;;;4.03;3.63;;;19.10;99.90;;;;;;5027972;28;20179;-65
2023/10/13 02:33:44;;;;;;;5.68;3.95;;;19.00;99.90;;;;;;5021525;28;20178;-65
2023/10/13 02:36:12;;;;;;;6.60;4.25;;;19.00;99.90;;;;;;5031785;28;20293;-65
2023/10/13 02:41:25;;;;;;;6.03;4.00;;;19.00;99.90;;;;;;5015365;28;20198;-65
2023/10/13 02:43:52;;;;;;;4.88;3.85;;;19.00;99.90;;;;;;5034109;28;20166;-65
2023/10/13 02:46:21;;;;;;;7.68;4.25;;;19.00;99.90;;;;;;5032973;28;20225;-65
2023/10/13 02:48:52;;;;;;;6.50;4.15;;;19.00;99.90;;;;;;5033280;28;20205;-65
2023/10/13 02:51:31;;;;;;;6.43;4.28;;;19.00;99.90;;;;;;5054360;28;20367;-65
2023/10/13 02:54:02;;;;;;;4.88;4.07;;;19.00;99.90;;;;;;5037867;28;20340;-65
2023/10/13 02:56:29;;;;;;;5.88;4.30;;;19.00;99.90;;;;;;5038027;28;20178;-64
2023/10/13 02:58:57;;;;;;;5.57;4.28;;;19.00;99.90;;;;;;5037560;28;20186;-64
2023/10/13 03:01:28;;;;;;;6.57;4.53;;;19.00;99.90;;;;;;5041298;28;20181;-65
2023/10/13 03:03:55;;;;;;;7.07;5.13;;;19.00;99.90;;;;;;5046432;28;20177;-64
2023/10/13 03:06:32;;;;;;;8.40;4.95;;;19.00;99.90;;;;;;5042527;28;20331;-65
2023/10/13 03:09:18;;;;;;;6.20;4.63;;;19.00;99.90;;;;;;5053726;28;20170;-65
2023/10/13 03:11:50;;;;;;;6.03;5.00;;;19.10;99.90;;;;;;5033787;28;20183;-65
2023/10/13 03:14:31;;;;;;;6.15;4.03;;;19.10;99.90;;;;;;5052627;28;20201;-65
2023/10/13 03:17:06;;;;;;;5.43;4.25;;;19.10;99.90;;;;;;5038260;28;20178;-65
2023/10/13 03:19:32;;;;;;;6.28;3.92;;;19.10;99.90;;;;;;5037134;28;20205;-65
2023/10/13 03:22:09;;;;;;;6.78;4.10;;;19.10;99.90;;;;;;5053340;28;20185;-65
2023/10/13 03:24:47;;;;;;;4.85;3.90;;;19.10;99.90;;;;;;5056245;28;20172;-64
2023/10/13 03:27:17;;;;;;;6.30;3.80;;;19.10;99.90;;;;;;5039059;28;20208;-65
2023/10/13 03:29:47;;;;;;;4.90;4.25;;;19.20;99.90;;;;;;5040322;28;20173;-65
2023/10/13 03:32:20;;;;;;;7.47;4.18;;;19.20;99.90;;;;;;5048648;28;20198;-65
2023/10/13 03:37:38;;;;;;;5.72;4.55;;;19.20;99.90;;;;;;5025236;28;20202;-65
2023/10/13 03:40:33;;;;;;;5.50;3.90;;;19.20;99.90;;;;;;5036401;28;20167;-65
2023/10/13 03:43:09;;;;;;;4.65;3.97;;;19.20;99.90;;;;;;5037540;28;20174;-67
2023/10/13 03:45:42;;;;;;;5.93;3.75;;;19.30;99.90;;;;;;5031320;28;20185;-66
2023/10/13 03:48:21;;;;;;;6.50;4.13;;;19.30;99.90;;;;;;5036873;28;20200;-66
2023/10/13 03:50:48;;;;;;;6.85;3.83;;;19.30;99.90;;;;;;5036747;28;20204;-66
2023/10/13 03:53:17;;;;;;;6.18;4.13;;;19.30;99.90;;;;;;5035847;28;20174;-65
2023/10/13 03:55:47;;;;;;;6.10;4.00;;;19.30;99.90;;;;;;5049385;28;20217;-66
2023/10/13 03:58:16;;;;;;;10.20;7.13;;;19.30;99.90;;;;;;5034116;28;20177;-67
2023/10/13 04:00:46;;;;;;;8.63;6.47;;;19.30;99.90;;;;;;5035528;28;20178;-63
2023/10/13 04:03:16;;;;;;;6.72;5.30;;;19.30;99.90;;;;;;5035032;28;20240;-64
2023/10/13 04:05:45;;;;;;;6.28;4.88;;;19.30;99.90;;;;;;5034253;28;20209;-65
2023/10/13 04:16:34;;;;;;;4.28;3.88;;;19.30;99.90;;;;;;5037815;28;20237;-64
2023/10/13 04:19:08;;;;;;;5.53;3.88;;;19.30;99.90;;;;;;5056102;28;20169;-64
2023/10/13 04:21:39;;;;;;;5.47;3.97;;;19.30;99.90;;;;;;5056099;28;20224;-64
2023/10/13 04:30:10;;;;;;;9.00;6.90;;;19.30;99.90;;;;;;5036296;28;20216;-64
2023/10/13 04:32:41;;;;;;;6.63;4.95;;;19.40;99.90;;;;;;5036038;28;20201;-64
2023/10/13 04:35:18;;;;;;;5.53;4.88;;;19.30;99.90;;;;;;5035966;28;20197;-64
2023/10/13 04:40:19;;;;;;;5.55;4.72;;;19.40;99.90;;;;;;5049404;28;20225;-64
2023/10/13 04:42:49;;;;;;;5.55;4.53;;;19.40;99.90;;;;;;5035722;28;20185;-64
2023/10/13 04:48:17;;;;;;;5.82;4.95;;;19.40;99.90;;;;;;5036534;28;20185;-64
2023/10/13 04:50:46;;;;;;;6.85;4.90;;;19.40;99.90;;;;;;5035735;28;20177;-64
2023/10/13 04:53:33;;;;;;;5.38;4.13;;;19.40;99.90;;;;;;5035334;28;20503;-65
2023/10/13 06:28:40;;;;;;;6.82;3.05;;;20.10;99.90;;;;;;5038844;28;20212;-66
2023/10/13 06:31:13;;;;;;;6.10;3.13;;;20.10;99.90;;;;;;5055036;28;20198;-65
2023/10/13 06:33:45;;;;;;;7.03;3.40;;;20.20;99.90;;;;;;5054874;28;20197;-65
2023/10/13 06:36:11;;;;;;;6.65;3.70;;;20.20;99.90;;;;;;5054908;28;20280;-65
2023/10/13 06:38:39;;;;;;;7.13;2.97;;;20.20;99.90;;;;;;5052090;28;20223;-65
2023/10/13 06:41:06;;;;;;;6.80;3.63;;;20.30;99.90;;;;;;5056626;28;20174;-65
2023/10/13 06:43:39;;;;;;;9.05;3.35;;;20.30;99.90;;;;;;5049902;28;20276;-66
2023/10/13 06:46:14;;;;;;;6.13;3.40;;;20.40;99.90;;;;;;5036711;28;20212;-66
2023/10/13 06:48:41;;;;;;;6.20;3.10;;;20.40;99.90;;;;;;5036604;28;20201;-65
2023/10/13 06:51:17;;;;;;;7.88;3.38;;;20.50;99.90;;;;;;5049472;28;20256;-65
2023/10/13 06:53:56;;;;;;;6.55;3.45;;;20.60;99.90;;;;;;5056730;28;20165;-66
2023/10/13 06:56:27;;;;;;;7.35;3.72;;;20.60;99.90;;;;;;5056727;28;20243;-65
2023/10/13 06:59:04;;;;;;;5.05;3.25;;;20.70;99.90;;;;;;5042625;28;20196;-65
2023/10/13 07:01:29;;;;;;;8.45;3.70;;;20.70;99.90;;;;;;5036798;28;20208;-66
2023/10/13 07:04:01;;;;;;;7.65;3.22;;;20.70;99.90;;;;;;5037308;28;20170;-65
2023/10/13 07:06:31;;;;;;;8.30;3.25;;;20.80;99.90;;;;;;5036420;28;20209;-66
2023/10/13 07:09:04;;;;;;;8.77;3.30;;;20.80;99.90;;;;;;5033220;28;20167;-67
2023/10/13 07:11:38;;;;;;;7.47;3.85;;;20.90;99.90;;;;;;5016904;28;20162;-65
2023/10/13 07:14:10;;;;;;;9.32;3.45;;;20.90;99.90;;;;;;5034341;28;20212;-65
2023/10/13 07:16:46;;;;;;;5.93;3.70;;;20.90;99.90;;;;;;5036247;28;20204;-67
2023/10/13 07:19:17;;;;;;;7.00;3.55;;;21.00;99.90;;;;;;5036373;28;20169;-66
2023/10/13 07:21:45;;;;;;;5.97;3.45;;;21.00;99.90;;;;;;5036220;28;20193;-65
2023/10/13 07:24:13;;;;;;;6.35;3.67;;;21.10;99.90;;;;;;5036418;28;20178;-65
2023/10/13 07:26:42;;;;;;;6.75;3.35;;;21.10;99.90;;;;;;5052626;28;20202;-65
2023/10/13 07:29:09;;;;;;;8.18;3.35;;;21.20;99.90;;;;;;5052920;28;20198;-64
2023/10/13 07:31:37;;;;;;;6.32;3.53;;;21.20;99.90;;;;;;5052713;28;20170;-65
2023/10/13 07:34:12;;;;;;;6.65;3.10;;;21.20;99.90;;;;;;5036009;28;20174;-65
2023/10/13 07:36:43;;;;;;;6.65;3.40;;;21.30;99.90;;;;;;5036049;28;20209;-65
2023/10/13 07:39:25;;;;;;;8.65;4.25;;;21.40;99.90;;;;;;4997145;28;1140640;-65
2023/10/13 07:42:03;;;;;;;7.13;3.70;;;21.40;99.90;;;;;;5055569;28;20206;-66
2023/10/13 07:44:33;;;;;;;7.63;3.78;;;21.40;99.90;;;;;;5057263;28;20180;-65
2023/10/13 07:47:03;;;;;;;6.88;3.38;;;21.50;99.90;;;;;;5045068;28;20229;-66
2023/10/13 07:49:36;;;;;;;6.97;3.67;;;21.50;99.90;;;;;;5037034;28;20194;-66
2023/10/13 07:54:49;;;;;;;6.35;3.45;;;21.50;99.90;;;;;;5037807;28;20156;-65
2023/10/13 07:57:28;;;;;;;4.50;3.20;;;21.60;99.90;;;;;;5036948;28;20170;-65
2023/10/13 08:00:06;;;;;;;8.05;3.97;;;21.60;99.90;;;;;;5036826;28;20205;-65
2023/10/13 08:02:51;;;;;;;5.85;3.08;;;21.60;99.90;;;;;;5036683;28;20208;-66
2023/10/13 08:05:39;;;;;;;6.95;3.83;;;21.70;99.90;;;;;;5036788;28;20173;-66
2023/10/13 08:08:14;;;;;;;7.13;3.50;;;21.70;99.90;;;;;;5037299;28;20212;-65
2023/10/13 08:10:41;;;;;;;6.35;3.28;;;21.70;99.90;;;;;;5036642;28;20162;-65
2023/10/13 08:13:12;;;;;;;8.50;3.67;;;21.80;99.90;;;;;;5036619;28;20205;-65
2023/10/13 08:15:46;;;;;;;6.82;3.50;;;21.80;99.90;;;;;;5037224;28;20402;-65
2023/10/13 08:18:29;;;;;;;7.95;3.55;;;21.80;99.90;;;;;;5036367;28;20456;-64
2023/10/13 08:21:05;;;;;;;6.30;3.30;;;21.80;99.90;;;;;;5036603;28;20177;-65
2023/10/13 08:23:57;;;;;;;6.57;3.63;;;21.90;99.90;;;;;;5036566;28;20201;-65
2023/10/13 08:26:29;;;;;;;7.97;3.50;;;21.90;99.90;;;;;;5017011;28;20178;-65
2023/10/13 08:28:56;;;;;;;7.70;3.28;;;21.90;99.90;;;;;;5021877;28;20892;-65
2023/10/13 08:31:22;;;;;;;5.45;3.40;;;21.90;99.90;;;;;;5038836;28;20181;-65
2023/10/13 08:33:57;;;;;;;7.47;3.40;;;21.90;99.90;;;;;;5036143;28;20181;-66
2023/10/13 08:36:30;;;;;;;5.47;3.70;;;21.90;99.90;;;;;;5036025;28;20190;-65
2023/10/13 08:39:15;;;;;;;5.65;3.70;;;21.90;99.90;;;;;;5035887;28;20217;-65
2023/10/13 08:41:58;;;;;;;7.88;3.67;;;21.90;99.90;;;;;;5036224;28;20357;-66
2023/10/13 08:44:35;;;;;;;6.85;4.00;;;21.90;99.90;;;;;;5035981;28;20401;-65
2023/10/13 08:47:05;;;;;;;7.82;3.78;;;21.90;99.90;;;;;;5029696;28;20198;-65
2023/10/13 08:49:39;;;;;;;7.78;4.13;;;21.90;99.90;;;;;;5027713;28;20182;-65
2023/10/13 08:52:45;;;;;;;9.10;3.92;;;22.00;99.90;;;;;;5035894;28;20204;-69
2023/10/13 08:57:41;;;;;;;12.13;3.85;;;22.00;99.90;;;;;;5025381;28;20209;-66
2023/10/13 09:00:28;;;;;;;6.25;3.90;;;22.00;99.90;;;;;;5030361;28;20197;-68
2023/10/13 09:03:26;;;;;;;7.38;4.18;;;22.10;99.90;;;;;;5035802;28;20507;-66
2023/10/13 09:06:00;;;;;;;7.22;3.88;;;22.10;99.90;;;;;;5035808;28;20280;-67
2023/10/13 09:08:58;;;;;;;6.63;4.22;;;22.10;99.90;;;;;;5035256;28;20194;-65
2023/10/13 09:11:26;;;;;;;8.65;3.97;;;22.20;99.90;;;;;;5036136;28;20472;-67
2023/10/13 09:13:52;;;;;;;9.40;4.60;;;22.20;99.90;;;;;;5052179;28;20270;-65
2023/10/13 09:16:59;;;;;;;6.03;4.00;;;22.30;99.90;;;;;;5035455;28;20257;-67
2023/10/13 09:19:11;;;;;;;7.20;4.13;;;22.40;99.90;;;;;;5034010;28;20170;-66
2023/10/13 09:24:31;;;;;;;6.60;3.88;;;22.50;99.90;;;;;;5033165;28;20289;-67
2023/10/13 09:27:01;;;;;;;6.65;3.78;;;22.50;99.90;;;;;;5051837;28;20206;-66
2023/10/13 09:29:29;;;;;;;7.75;3.92;;;22.60;99.90;;;;;;5035396;28;20170;-65
2023/10/13 09:32:01;;;;;;;8.55;4.18;;;22.70;99.90;;;;;;5035338;28;20194;-66
2023/10/13 09:34:33;;;;;;;5.70;3.72;;;22.70;99.90;;;;;;5035279;28;20177;-65
2023/10/13 09:37:03;;;;;;;7.47;4.13;;;22.80;99.90;;;;;;5034671;28;20185;-66
2023/10/13 09:40:07;;;;;;;6.97;4.10;;;22.80;99.90;;;;;;5034254;28;20197;-68
2023/10/13 09:42:23;;;;;;;8.18;4.40;;;22.90;99.90;;;;;;5035269;28;20186;-66
2023/10/13 09:44:58;;;;;;;7.53;4.22;;;23.00;99.90;;;;;;5034809;28;20207;-66
2023/10/13 09:47:30;;;;;;;8.88;4.15;;;23.10;99.90;;;;;;5034269;28;20350;-66
2023/10/13 09:50:04;;;;;;;5.25;3.80;;;23.10;99.90;;;;;;5034965;28;20201;-66
2023/10/13 09:52:31;;;;;;;7.15;4.22;;;23.20;99.90;;;;;;5051129;28;20204;-66
2023/10/13 09:55:13;;;;;;;5.53;3.70;;;23.40;99.90;;;;;;5051162;28;20178;-66
2023/10/13 09:57:44;;;;;;;5.93;3.60;;;23.50;99.90;;;;;;5034589;28;20188;-66
2023/10/13 10:03:14;;;;;;;5.82;4.10;;;23.70;99.90;;;;;;5031260;28;20210;-66
2023/10/13 10:05:49;;;;;;;6.57;4.10;;;23.80;99.90;;;;;;5014708;28;20199;-66
2023/10/13 10:08:32;;;;;;;6.03;3.97;;;23.90;99.90;;;;;;5014621;28;20237;-66
2023/10/13 10:11:17;;;;;;;9.18;4.65;;;23.90;99.90;;;;;;5014926;28;20166;-67
2023/10/13 10:13:53;;;;;;;9.40;4.70;;;24.00;99.90;;;;;;5019713;28;20197;-66
2023/10/13 10:16:36;;;;;;;7.57;4.68;;;24.00;99.90;;;;;;5051216;28;20173;-66
2023/10/13 10:19:01;;;;;;;8.50;4.93;;;24.00;99.90;;;;;;5034185;28;20199;-67
2023/10/13 10:21:41;;;;;;;6.50;4.53;;;24.00;99.90;;;;;;5034532;28;20174;-67
2023/10/13 10:24:30;;;;;;;6.50;4.57;;;24.10;99.90;;;;;;5034448;28;20188;-67
2023/10/13 10:26:58;;;;;;;9.90;5.30;;;24.10;99.90;;;;;;5034008;28;20382;-64
2023/10/13 10:29:23;;;;;;;10.13;4.95;;;24.20;99.90;;;;;;5034187;28;20178;-65
2023/10/13 10:31:50;;;;;;;7.95;4.95;;;24.30;99.90;;;;;;5050974;28;20169;-66
2023/10/13 10:34:19;;;;;;;7.70;4.93;;;24.30;99.90;;;;;;5050548;28;20232;-65
2023/10/13 10:36:55;;;;;;;7.03;4.72;;;24.30;99.90;;;;;;5050896;28;20190;-66
2023/10/13 10:39:33;;;;;;;9.65;4.60;;;24.40;99.90;;;;;;5050448;28;20213;-65
2023/10/13 10:42:15;;;;;;;9.75;5.13;;;24.50;99.90;;;;;;5050686;28;20189;-65
2023/10/13 10:44:43;;;;;;;7.93;4.90;;;24.50;99.90;;;;;;5050705;28;20193;-65
2023/10/13 10:47:30;;;;;;;7.13;4.55;;;24.50;99.90;;;;;;5044761;28;20202;-66
2023/10/13 10:49:57;;;;;;;8.23;5.10;;;24.60;99.90;;;;;;5034230;28;20184;-65
2023/10/13 10:52:26;;;;;;;9.90;4.85;;;24.60;99.90;;;;;;5050605;28;20201;-66
2023/10/13 10:54:59;;;;;;;9.40;5.05;;;24.60;99.90;;;;;;5050556;28;20263;-64
2023/10/13 10:57:28;;;;;;;7.03;4.45;;;24.70;99.90;;;;;;5034085;28;20269;-65
2023/10/13 11:00:11;;;;;;;7.65;4.18;;;24.70;99.90;;;;;;5033751;28;20194;-65
2023/10/13 11:02:40;;;;;;;8.70;4.65;;;24.70;99.90;;;;;;5033469;28;20196;-66
2023/10/13 11:05:09;;;;;;;6.97;4.22;;;24.80;99.90;;;;;;5050547;28;20177;-66
2023/10/13 11:07:35;;;;;;;6.25;4.43;;;24.90;99.90;;;;;;5034767;28;20232;-66
2023/10/13 11:10:46;;;;;;;7.10;4.72;;;24.90;99.90;;;;;;5032632;28;20179;-65
2023/10/13 11:13:13;;;;;;;10.63;4.07;;;25.00;99.90;;;;;;5018035;28;20269;-65
2023/10/13 11:15:44;;;;;;;10.40;4.70;;;25.20;99.90;;;;;;5034578;28;20297;-65
2023/10/13 11:18:20;;;;;;;6.97;4.38;;;25.30;99.90;;;;;;5035496;28;20186;-65
2023/10/13 11:20:54;;;;;;;8.40;4.20;;;25.40;99.90;;;;;;5037793;28;20190;-65
2023/10/13 11:23:25;;;;;;;6.85;4.40;;;25.50;99.90;;;;;;5037219;28;20182;-65
2023/10/13 11:26:03;;;;;;;8.00;4.20;;;25.50;99.90;;;;;;5037698;28;20174;-65
2023/10/13 11:28:29;;;;;;;7.28;4.85;;;25.50;99.90;;;;;;5037656;28;20214;-66
2023/10/13 11:30:58;;;;;;;10.25;4.50;;;25.50;99.90;;;;;;5054188;28;20178;-66
2023/10/13 11:33:28;;;;;;;8.68;4.43;;;25.50;99.90;;;;;;5053974;28;20194;-65
2023/10/13 11:35:55;;;;;;;6.63;4.03;;;25.50;99.90;;;;;;5054362;28;20166;-66
2023/10/13 11:41:34;;;;;;;7.45;4.25;;;25.50;99.90;;;;;;5028287;28;20178;-66
2023/10/13 11:47:16;;;;;;;8.23;4.10;;;25.50;99.90;;;;;;4995798;28;20215;-67
2023/10/13 11:49:42;;;;;;;8.80;4.40;;;25.50;99.90;;;;;;5018080;28;20170;-67
2023/10/13 11:52:28;;;;;;;7.75;3.90;;;25.50;99.90;;;;;;5018075;28;20202;-66
2023/10/13 11:54:53;;;;;;;5.55;3.97;;;25.50;99.90;;;;;;5034120;28;20192;-67
2023/10/13 11:57:19;;;;;;;6.40;3.75;;;25.50;99.90;;;;;;5047256;28;20177;-67
2023/10/13 11:59:53;;;;;;;5.68;3.95;;;25.50;99.90;;;;;;5037453;28;20202;-66
2023/10/13 12:04:57;;;;;;;6.10;3.72;;;25.50;99.90;;;;;;5038144;28;20232;-66
2023/10/13 12:12:28;;;;;;;9.38;4.70;;;25.50;99.90;;;;;;5037842;28;20186;-67
2023/10/13 12:14:55;;;;;;;10.43;4.63;;;25.50;99.90;;;;;;5037131;28;20181;-66
2023/10/13 12:17:35;;;;;;;7.95;4.43;;;25.50;99.90;;;;;;5036821;28;20341;-65
2023/10/13 12:20:09;;;;;;;9.00;4.15;;;25.50;99.90;;;;;;5036813;28;20177;-67
2023/10/13 12:22:35;;;;;;;9.15;4.13;;;25.60;99.90;;;;;;5035725;28;20170;-67
2023/10/13 12:25:18;;;;;;;7.70;4.47;;;25.70;99.90;;;;;;5036599;28;20202;-67
2023/10/13 12:27:50;;;;;;;8.82;3.95;;;25.80;99.90;;;;;;5036980;28;20205;-67
2023/10/13 12:30:35;;;;;;;7.75;4.40;;;25.80;99.90;;;;;;5036238;28;20189;-66
2023/10/13 12:33:08;;;;;;;6.88;3.92;;;25.80;99.90;;;;;;5036420;28;20177;-66
2023/10/13 12:35:35;;;;;;;9.10;4.03;;;25.90;99.90;;;;;;5036459;28;20181;-66
2023/10/13 12:38:05;;;;;;;7.45;4.22;;;25.90;99.90;;;;;;5052933;28;20259;-67
2023/10/13 12:49:07;;;;;;;5.32;3.35;;;25.90;99.90;;;;;;5036882;28;20247;-66
2023/10/13 12:54:13;;;;;;;8.73;3.97;;;25.80;99.90;;;;;;5037018;28;20181;-66
2023/10/13 12:56:41;;;;;;;5.97;3.65;;;25.90;99.90;;;;;;5036165;28;20217;-65
2023/10/13 12:59:13;;;;;;;6.75;3.72;;;25.90;99.90;;;;;;5036009;28;20209;-66
2023/10/13 13:01:42;;;;;;;7.10;4.40;;;25.90;99.90;;;;;;5036307;28;20193;-66
2023/10/13 13:04:18;;;;;;;6.07;3.70;;;26.00;99.90;;;;;;5036040;28;20174;-65
2023/10/13 13:06:44;;;;;;;8.70;4.13;;;26.00;99.90;;;;;;5052197;28;20225;-65
2023/10/13 13:09:12;;;;;;;8.02;4.07;;;26.00;99.90;;;;;;5036126;28;20174;-66
2023/10/13 13:11:43;;;;;;;12.48;4.75;;;26.00;99.90;;;;;;5052264;28;20174;-66
2023/10/13 13:14:11;;;;;;;7.90;3.97;;;25.90;99.90;;;;;;5035862;28;20174;-66
2023/10/13 13:16:39;;;;;;;6.90;4.07;;;25.90;99.90;;;;;;5036113;28;20268;-66
2023/10/13 13:19:10;;;;;;;7.47;4.40;;;25.90;99.90;;;;;;5035460;28;20280;-66
2023/10/13 13:21:37;;;;;;;8.93;5.00;;;25.80;99.90;;;;;;5052265;28;20205;-66
2023/10/13 13:24:04;;;;;;;9.75;4.70;;;25.80;99.90;;;;;;5052276;28;20216;-66
2023/10/13 13:26:32;;;;;;;6.65;3.90;;;25.80;99.90;;;;;;5035938;28;20189;-66
2023/10/13 13:28:58;;;;;;;7.88;4.00;;;25.80;99.90;;;;;;5052321;28;20181;-67
2023/10/13 13:31:29;;;;;;;6.72;4.35;;;25.80;99.90;;;;;;5035393;28;20198;-66
2023/10/13 13:33:55;;;;;;;8.85;4.10;;;25.80;99.90;;;;;;5035096;28;20261;-66
2023/10/13 13:36:22;;;;;;;7.28;3.90;;;25.80;99.90;;;;;;5035727;28;20190;-67
2023/10/13 13:38:51;;;;;;;9.43;4.38;;;25.80;99.90;;;;;;5035466;28;20193;-66
2023/10/13 13:41:17;;;;;;;5.53;3.72;;;25.80;99.90;;;;;;5034746;28;20174;-66
2023/10/13 13:43:55;;;;;;;8.63;4.47;;;25.80;99.90;;;;;;5035282;28;20205;-66
2023/10/13 13:46:27;;;;;;;7.63;3.90;;;25.80;99.90;;;;;;5035241;28;20174;-66
2023/10/13 13:49:06;;;;;;;9.07;3.65;;;25.80;99.90;;;;;;5035287;28;20205;-66
2023/10/13 13:51:33;;;;;;;9.75;4.10;;;25.80;99.90;;;;;;5035530;28;20174;-67
2023/10/13 13:53:59;;;;;;;7.93;3.92;;;25.80;99.90;;;;;;5025743;28;20208;-65
2023/10/13 13:56:28;;;;;;;5.97;3.70;;;25.70;99.90;;;;;;5035347;28;20213;-67
2023/10/13 13:59:06;;;;;;;7.10;3.95;;;25.70;99.90;;;;;;5034965;28;20185;-66
2023/10/13 14:01:37;;;;;;;11.75;3.50;;;25.70;99.90;;;;;;5035561;28;20166;-66
2023/10/13 14:04:06;;;;;;;7.75;4.05;;;25.60;99.90;;;;;;5035130;28;20150;-65
2023/10/13 14:06:34;;;;;;;7.05;3.92;;;25.60;99.90;;;;;;5035419;28;20170;-66
2023/10/13 14:09:14;;;;;;;7.80;4.10;;;25.60;99.90;;;;;;5034791;28;20193;-65
2023/10/13 14:17:02;;;;;;;9.10;4.13;;;25.50;99.90;;;;;;5035519;28;20205;-67
2023/10/13 14:19:28;;;;;;;7.97;3.90;;;25.50;99.90;;;;;;5034953;28;20260;-66
2023/10/13 14:22:06;;;;;;;7.20;3.95;;;25.50;99.90;;;;;;5034868;28;20269;-66
2023/10/13 14:24:33;;;;;;;8.50;3.88;;;25.40;99.90;;;;;;5035994;28;20154;-66
2023/10/13 14:27:09;;;;;;;7.78;4.07;;;25.40;99.90;;;;;;5034975;28;20256;-66
2023/10/13 14:29:43;;;;;;;6.47;3.55;;;25.40;99.90;;;;;;5034764;28;20182;-67
2023/10/13 14:32:15;;;;;;;6.03;3.60;;;25.40;99.90;;;;;;5034566;28;20256;-66
2023/10/13 14:34:54;;;;;;;6.53;3.40;;;25.30;99.90;;;;;;5051366;28;20193;-66
2023/10/13 14:37:31;;;;;;;7.95;3.92;;;25.30;99.90;;;;;;5051572;28;20230;-68
2023/10/13 14:39:59;;;;;;;7.07;4.00;;;25.30;99.90;;;;;;5044051;28;20198;-66
2023/10/13 14:42:28;;;;;;;8.60;4.10;;;25.30;99.90;;;;;;5034454;28;20200;-66
2023/10/13 14:44:57;;;;;;;6.00;3.78;;;25.20;99.90;;;;;;5033952;28;20178;-65
2023/10/13 14:47:25;;;;;;;7.15;4.40;;;25.20;99.90;;;;;;5052233;28;20239;-65
2023/10/13 14:49:59;;;;;;;7.93;4.05;;;25.20;99.90;;;;;;5038641;28;20371;-65
2023/10/13 14:52:25;;;;;;;7.68;4.22;;;25.20;99.90;;;;;;5038202;28;20194;-66
2023/10/13 14:54:59;;;;;;;5.72;3.60;;;25.20;99.90;;;;;;5038437;28;20170;-67
2023/10/13 14:57:25;;;;;;;7.10;4.07;;;25.20;99.90;;;;;;5038419;28;20170;-66
2023/10/13 14:59:57;;;;;;;7.28;4.45;;;25.20;99.90;;;;;;5037477;28;20182;-66
2023/10/13 15:02:25;;;;;;;6.65;4.00;;;25.20;99.90;;;;;;5037234;28;20927;-65
2023/10/13 15:04:51;;;;;;;8.27;3.78;;;25.20;99.90;;;;;;5037669;28;20197;-65
2023/10/13 15:07:22;;;;;;;7.43;3.92;;;25.20;99.90;;;;;;5038076;28;20198;-66
2023/10/13 15:09:47;;;;;;;7.63;3.42;;;25.20;99.90;;;;;;5037843;28;20166;-66
2023/10/13 15:12:13;;;;;;;7.38;3.90;;;25.20;99.90;;;;;;5034249;28;20167;-66
2023/10/13 15:14:42;;;;;;;6.60;3.67;;;25.20;99.90;;;;;;5037297;28;20170;-66
2023/10/13 15:17:09;;;;;;;8.13;3.70;;;25.20;99.90;;;;;;5054560;28;20246;-65
2023/10/13 15:19:42;;;;;;;7.43;3.72;;;25.20;99.90;;;;;;5042800;28;20182;-68
2023/10/13 15:22:25;;;;;;;7.00;3.95;;;25.20;99.90;;;;;;5051024;28;20189;-68
2023/10/13 15:25:49;;;;;;;4.78;3.53;;;25.10;99.90;;;;;;5022080;28;20182;-69
2023/10/13 15:27:41;;;;;;;6.57;3.50;;;25.10;99.90;;;;;;5033544;28;20212;-68
2023/10/13 15:30:20;;;;;;;8.25;4.35;;;25.10;99.90;;;;;;5037103;28;20217;-68
2023/10/13 15:32:51;;;;;;;6.43;4.47;;;25.10;99.90;;;;;;5033831;28;20182;-69
2023/10/13 15:35:18;;;;;;;8.52;4.55;;;25.00;99.90;;;;;;5026323;28;20240;-68
2023/10/13 15:37:47;;;;;;;6.35;4.40;;;25.00;99.90;;;;;;5034352;28;20256;-68
2023/10/13 15:40:15;;;;;;;9.68;4.82;;;25.00;99.90;;;;;;5036925;28;20185;-68
2023/10/13 15:42:42;;;;;;;5.10;3.78;;;24.90;99.90;;;;;;5037481;28;20216;-68
2023/10/13 15:45:16;;;;;;;6.78;4.15;;;24.90;99.90;;;;;;5038444;28;20266;-68
2023/10/13 15:47:51;;;;;;;6.45;3.63;;;24.90;99.90;;;;;;5036980;28;20201;-68
2023/10/13 15:50:20;;;;;;;4.32;3.42;;;24.90;99.90;;;;;;5036853;28;20193;-69
2023/10/13 15:52:46;;;;;;;5.40;3.78;;;24.90;99.90;;;;;;5036175;28;20238;-69
2023/10/13 15:55:17;;;;;;;7.18;4.50;;;24.90;99.90;;;;;;5053209;28;20189;-68
2023/10/13 15:57:44;;;;;;;5.03;3.55;;;24.80;99.90;;;;;;5052772;28;20178;-68
2023/10/13 16:00:29;;;;;;;6.38;3.65;;;24.80;99.90;;;;;;5018566;28;20175;-68
2023/10/13 16:02:59;;;;;;;5.95;3.53;;;24.80;99.90;;;;;;5016885;28;20194;-67